Airfield :
LOGIN :

Register | Disclaimer

   EN    FR    IT 

 










Legend :    VFR   Marginal VFR   IFR   Intensive IFR   Very Intensive IFR
Visi :
Ceiling :
>= 8 km
>= 3000ft
5 to 8 km
1000 to 3000 ft
1500m to 5 km
500 to 1000 ft
800 to 1500m
200 to 500 ft
< 800m
< 200 ft
Symbols :   Thunderstorms  Fog  Heavy snow  Heavy precipitations  Wind > 20 kt
SIGMETs :     Misc.  Thunderstorms  Icing  Turbulence  Mountain Waves  Volcanic Ashes






- Airport Elevation : 433 ft
- IATA code : CCF


LFMK - Carcassonne

CURRENT METAR :
  • 190700Z AUTO VRB02KT 7000 BKN010 OVC016 15/15 Q1009 BECMG 09012KT

EXPIRED METARs :
  • 190630Z AUTO 30004KT 6000 OVC011 15/15 Q1009 TEMPO BKN005 BKN020 BECMG 09012KT
  • 190600Z AUTO VRB02KT 8000 BKN012 OVC230 15/14 Q1008 TEMPO BKN005 BKN020 BECMG 09012KT
  • 190530Z AUTO 08008KT 9999 FEW015 OVC230 15/14 Q1008 TEMPO BKN005 BKN020
  • 190500Z AUTO 09007KT 070V130 9999 FEW006 OVC230 16/15 Q1008 TEMPO BKN005 BKN020
  • 190430Z AUTO 09008KT 060V120 9999 FEW006 BKN200 OVC230 16/15 Q1008 TEMPO BKN005 BKN020

TAF AMD TAF LFMK
Valid from the 19 at 04:00 until the 20 at 03:00 UTC


190417Z 1904/2003 09012KT CAVOK
TEMPO 1904/1910 BKN005 BKN020
BECMG 1921/1924 09012G22KT



MET'MAP, your aeronautical weather chart ! - Copyright ORBIFLY December 2007 - Disclaimer

ORBIFLY MET'MAP TEAM :

Programming & Development : Alexandra Zaïnal
Concept & Development : Baudouin d'Aumeries
Co-Development & Prog : Marc-Olivier Méhu
Technical & hardware support : Manuel Goepfert

Contact : metmap@orbifly.com




SOURCES & CREDITS :

   NOAA